Time;durP1;ratioP1;P1;durP2;ratioP2;P2;SDS_P1;SDS_P2;PMS_P1;PMS_P2;Temp;Humidity;BMP_temperature;BMP_pressure;BME280_temperature;BME280_humidity;BME280_pressure;Samples;Min_cycle;Max_cycle;Signal;HPM_P1;HPM_P2
2023/04/15 00:00:58;;;;;;;1.33;1.23;;;;;;;20.36;36.69;101107.59;5113885;27;20044;-69
2023/04/15 00:03:24;;;;;;;1.77;1.40;;;;;;;20.33;36.65;101107.13;5103096;28;20047;-69
2023/04/15 00:05:49;;;;;;;1.70;1.60;;;;;;;20.20;36.96;101105.06;5110249;28;20040;-69
2023/04/15 00:08:15;;;;;;;3.22;1.60;;;;;;;20.22;36.99;101103.06;5095142;28;20065;-70
2023/04/15 00:10:43;;;;;;;1.75;1.60;;;;;;;20.26;36.95;101107.00;5103779;27;20054;-70
2023/04/15 00:13:09;;;;;;;3.42;1.50;;;;;;;20.20;36.93;101099.78;5096849;27;20047;-69
2023/04/15 00:15:34;;;;;;;2.25;1.63;;;;;;;20.20;36.99;101103.25;5105906;27;20043;-70
2023/04/15 00:18:00;;;;;;;2.30;1.83;;;;;;;20.23;36.82;101108.19;5110814;27;20036;-69
2023/04/15 00:20:25;;;;;;;2.00;1.63;;;;;;;20.20;37.11;101108.53;5110109;27;20040;-69
2023/04/15 00:22:51;;;;;;;1.45;1.25;;;;;;;20.19;36.92;101101.59;5098732;28;20321;-70
2023/04/15 00:25:16;;;;;;;3.33;1.80;;;;;;;20.20;36.91;101113.81;5103516;28;20035;-70
2023/04/15 00:27:42;;;;;;;2.13;1.35;;;;;;;20.16;36.88;101117.81;5098006;28;20059;-69
2023/04/15 00:30:08;;;;;;;1.92;1.38;;;;;;;20.20;36.94;101107.72;5107367;28;20044;-70
2023/04/15 00:32:34;;;;;;;2.10;1.80;;;;;;;20.23;36.93;101110.81;5104828;28;20126;-69
2023/04/15 00:34:59;;;;;;;3.22;1.67;;;;;;;20.16;36.96;101109.88;5102879;27;20096;-69
2023/04/15 00:37:25;;;;;;;1.58;1.48;;;;;;;20.22;36.88;101114.47;5093015;28;20052;-69
2023/04/15 00:39:51;;;;;;;2.15;1.70;;;;;;;20.18;36.95;101113.19;5106525;27;20172;-69
2023/04/15 00:42:18;;;;;;;1.60;1.50;;;;;;;20.12;37.07;101119.19;5083321;28;20040;-70
2023/04/15 00:44:44;;;;;;;2.40;1.50;;;;;;;20.18;37.05;101113.19;5101917;28;20046;-69
2023/04/15 00:47:10;;;;;;;1.45;1.23;;;;;;;20.13;36.99;101114.72;5101750;28;20076;-70
2023/04/15 00:49:36;;;;;;;1.85;1.40;;;;;;;20.14;36.99;101114.53;5106718;27;20050;-70
2023/04/15 00:52:02;;;;;;;2.30;2.00;;;;;;;20.12;37.07;101107.78;5106396;28;20044;-69
2023/04/15 00:54:29;;;;;;;2.50;1.75;;;;;;;20.15;36.94;101115.34;5087309;28;20060;-69
2023/04/15 00:56:55;;;;;;;2.10;1.70;;;;;;;20.18;36.89;101112.34;5097248;28;20035;-70
2023/04/15 00:59:21;;;;;;;2.17;1.70;;;;;;;20.10;37.02;101107.91;5105136;28;20163;-70
2023/04/15 01:01:46;;;;;;;1.45;1.35;;;;;;;20.09;37.05;101126.59;5103590;28;20047;-70
2023/04/15 01:04:12;;;;;;;2.22;1.67;;;;;;;20.08;37.08;101117.84;5084208;28;20450;-69
2023/04/15 01:06:38;;;;;;;2.38;1.65;;;;;;;20.13;37.03;101122.63;5103138;28;20065;-69
2023/04/15 01:09:03;;;;;;;2.38;1.50;;;;;;;20.08;37.05;101115.22;5109268;28;21333;-70
2023/04/15 01:11:30;;;;;;;1.88;1.60;;;;;;;20.12;36.96;101121.81;5103656;28;20040;-70
2023/04/15 01:13:57;;;;;;;2.83;1.70;;;;;;;20.14;36.93;101126.94;5108789;28;20055;-69
2023/04/15 01:16:23;;;;;;;2.40;1.80;;;;;;;20.05;37.09;101131.41;5094069;28;20046;-69
2023/04/15 01:18:49;;;;;;;2.25;1.60;;;;;;;20.08;37.03;101136.34;5102210;28;20052;-69
2023/04/15 01:21:14;;;;;;;1.55;1.33;;;;;;;20.12;36.96;101137.69;5084069;28;20113;-70
2023/04/15 01:23:40;;;;;;;2.92;1.40;;;;;;;20.08;37.00;101130.25;5083199;28;20071;-69
2023/04/15 01:26:08;;;;;;;1.50;1.40;;;;;;;20.07;37.08;101128.59;5107440;28;20079;-69
2023/04/15 01:28:34;;;;;;;1.50;1.38;;;;;;;20.03;36.99;101122.03;5095695;28;20109;-70
2023/04/15 01:31:13;;;;;;;2.05;1.73;;;;;;;20.06;36.99;101126.97;5076644;28;20074;-69
2023/04/15 01:33:41;;;;;;;1.40;1.30;;;;;;;20.05;37.01;101123.50;5100301;28;20032;-69
2023/04/15 01:36:08;;;;;;;2.58;1.80;;;;;;;20.12;36.92;101132.41;5103599;28;20088;-69
2023/04/15 01:38:36;;;;;;;1.98;1.48;;;;;;;20.10;36.97;101130.91;5100974;28;20058;-70
2023/04/15 01:41:03;;;;;;;1.65;1.42;;;;;;;20.05;37.16;101136.72;5106144;28;20039;-69
2023/04/15 01:43:29;;;;;;;2.42;1.60;;;;;;;20.00;37.13;101143.53;5099442;28;20068;-70
2023/04/15 01:45:55;;;;;;;1.63;1.42;;;;;;;20.00;37.06;101132.94;5105011;28;20123;-70
2023/04/15 01:48:21;;;;;;;2.53;1.70;;;;;;;20.06;36.96;101134.88;5102271;28;20067;-69
2023/04/15 01:50:47;;;;;;;2.33;1.73;;;;;;;20.04;37.08;101128.97;5107276;28;20054;-70
2023/04/15 01:53:14;;;;;;;2.40;1.88;;;;;;;19.99;37.07;101126.03;5088758;28;20031;-70
2023/04/15 01:55:40;;;;;;;1.92;1.60;;;;;;;19.97;37.14;101128.00;5107019;28;20662;-70
2023/04/15 01:58:05;;;;;;;1.80;1.50;;;;;;;20.01;37.10;101127.50;5104162;28;20047;-70
2023/04/15 02:00:32;;;;;;;2.55;1.63;;;;;;;20.00;36.84;101127.66;5104268;28;20451;-69
2023/04/15 02:02:58;;;;;;;2.22;1.50;;;;;;;19.98;37.05;101130.47;5089512;28;20082;-69
2023/04/15 02:05:24;;;;;;;1.45;1.35;;;;;;;19.97;37.03;101134.13;5090299;28;20036;-70
2023/04/15 02:07:50;;;;;;;1.98;1.52;;;;;;;20.01;37.10;101137.25;5104431;27;20047;-70
2023/04/15 02:10:16;;;;;;;1.02;0.95;;;;;;;19.97;36.92;101128.84;5098321;27;20040;-70
2023/04/15 02:12:42;;;;;;;1.77;1.38;;;;;;;20.04;36.94;101140.34;5107260;27;20036;-69
2023/04/15 02:15:09;;;;;;;1.48;1.17;;;;;;;19.89;37.21;101134.97;5106656;27;20031;-70
2023/04/15 02:17:36;;;;;;;1.77;1.45;;;;;;;19.81;37.25;101121.81;5088371;28;20535;-70
2023/04/15 02:20:04;;;;;;;1.88;1.70;;;;;;;19.96;37.06;101137.75;5088494;28;20457;-70
2023/04/15 02:22:30;;;;;;;1.77;1.60;;;;;;;19.93;37.15;101132.81;5107397;27;20059;-70
2023/04/15 02:24:56;;;;;;;2.92;1.70;;;;;;;19.94;36.92;101131.84;5105458;27;20055;-70
2023/04/15 02:27:21;;;;;;;1.60;1.50;;;;;;;19.88;37.28;101141.25;5105163;28;20035;-70
2023/04/15 02:29:50;;;;;;;2.15;1.40;;;;;;;19.93;37.07;101143.41;5090440;28;20572;-70
2023/04/15 02:32:16;;;;;;;1.88;1.50;;;;;;;19.88;37.22;101149.19;5107046;28;20047;-70
2023/04/15 02:34:41;;;;;;;1.80;1.50;;;;;;;19.89;37.24;101155.28;5113915;27;20046;-70
2023/04/15 02:37:10;;;;;;;2.45;1.48;;;;;;;19.91;37.09;101159.41;5102819;27;20044;-70
2023/04/15 02:39:36;;;;;;;2.45;1.50;;;;;;;19.91;37.17;101159.41;5091499;28;20413;-70
2023/04/15 02:42:01;;;;;;;2.28;1.40;;;;;;;19.89;37.14;101152.66;5100548;27;20031;-70
2023/04/15 02:44:27;;;;;;;1.75;1.50;;;;;;;19.89;37.21;101160.56;5089365;28;20048;-70
2023/04/15 02:46:57;;;;;;;2.88;1.50;;;;;;;19.84;37.20;101158.47;5101199;27;20036;-69
2023/04/15 02:49:24;;;;;;;1.95;1.42;;;;;;;19.90;37.13;101167.50;5091570;28;20393;-70
2023/04/15 02:51:50;;;;;;;2.78;1.60;;;;;;;19.88;36.94;101170.31;5107781;27;20035;-70
2023/04/15 02:54:21;;;;;;;1.42;1.33;;;;;;;19.85;37.27;101170.66;5102263;28;20044;-70
2023/04/15 02:56:47;;;;;;;1.65;1.55;;;;;;;19.96;36.92;101176.59;5088435;28;20028;-70
2023/04/15 02:59:13;;;;;;;1.90;1.70;;;;;;;19.87;37.17;101175.78;5108948;27;20092;-70
2023/04/15 03:01:38;;;;;;;1.45;1.35;;;;;;;19.86;37.12;101180.25;5092541;27;20046;-70
2023/04/15 03:04:04;;;;;;;1.52;1.30;;;;;;;19.79;37.26;101181.13;5110634;27;20851;-70
2023/04/15 03:06:29;;;;;;;1.80;1.52;;;;;;;19.83;37.21;101187.69;5088587;28;20140;-70
2023/04/15 03:08:55;;;;;;;1.85;1.40;;;;;;;19.82;37.35;101183.41;5108141;27;20047;-70
2023/04/15 03:11:22;;;;;;;1.48;1.33;;;;;;;19.89;37.08;101181.72;5094203;28;20585;-70
2023/04/15 03:13:47;;;;;;;1.38;1.27;;;;;;;19.77;37.20;101183.94;5109567;27;20039;-69
2023/04/15 03:16:30;;;;;;;2.17;1.48;;;;;;;19.83;37.16;101188.53;5091428;28;20036;-69
2023/04/15 03:18:57;;;;;;;1.30;1.20;;;;;;;19.79;37.36;101181.13;5089806;28;20040;-70
2023/04/15 03:21:23;;;;;;;1.83;1.73;;;;;;;19.79;37.22;101189.03;5102818;27;20089;-69
2023/04/15 03:23:49;;;;;;;1.60;1.50;;;;;;;19.80;37.26;101191.50;5093977;28;20036;-70
2023/04/15 03:26:30;;;;;;;1.60;1.50;;;;;;;19.80;37.24;101194.16;5105419;27;20032;-70
2023/04/15 03:29:09;;;;;;;1.52;1.42;;;;;;;19.77;37.34;101193.69;5098200;27;20054;-70
2023/04/15 03:31:35;;;;;;;1.58;1.48;;;;;;;19.82;37.20;101192.16;5091857;28;20047;-70
2023/04/15 03:34:00;;;;;;;1.80;1.45;;;;;;;19.85;37.05;101198.91;5113098;27;20031;-69
2023/04/15 03:36:33;;;;;;;1.67;1.58;;;;;;;19.78;37.16;101200.59;5094274;28;20042;-70
2023/04/15 03:39:00;;;;;;;1.35;1.23;;;;;;;19.78;37.16;101195.31;5114040;27;20044;-69
2023/04/15 03:41:27;;;;;;;2.50;1.50;;;;;;;19.77;37.21;101198.97;5107285;27;20052;-70
2023/04/15 03:43:52;;;;;;;2.00;1.40;;;;;;;19.72;37.17;101199.44;5108177;27;20050;-70
2023/04/15 03:46:18;;;;;;;1.75;1.40;;;;;;;19.79;37.16;101204.91;5110076;28;20035;-70
2023/04/15 03:48:44;;;;;;;1.50;1.40;;;;;;;19.72;37.30;101202.09;5106490;28;20070;-69
2023/04/15 03:51:09;;;;;;;2.13;1.85;;;;;;;19.75;37.08;101196.50;5111856;27;20044;-70
2023/04/15 03:53:35;;;;;;;1.70;1.60;;;;;;;19.75;37.19;101204.41;5103046;27;20031;-71
2023/04/15 03:56:01;;;;;;;1.48;1.38;;;;;;;19.80;37.02;101203.91;5104753;27;20038;-70
2023/04/15 03:58:26;;;;;;;1.85;1.50;;;;;;;19.74;37.19;101202.75;5104030;27;20971;-70
2023/04/15 04:00:53;;;;;;;1.77;1.67;;;;;;;19.78;37.15;101200.59;5107765;27;20142;-70
2023/04/15 04:03:19;;;;;;;1.30;1.20;;;;;;;19.75;37.06;101208.84;5106422;28;20040;-69
2023/04/15 04:05:45;;;;;;;1.60;1.50;;;;;;;19.75;37.13;101211.50;5110405;27;20039;-69
2023/04/15 04:08:12;;;;;;;1.27;1.17;;;;;;;19.69;37.28;101207.72;5105135;28;20077;-70
2023/04/15 04:10:38;;;;;;;1.75;1.33;;;;;;;19.73;37.17;101209.03;5115947;27;20070;-70
2023/04/15 04:13:04;;;;;;;1.40;1.30;;;;;;;19.76;37.00;101214.00;5104194;27;20035;-69
2023/04/15 04:15:30;;;;;;;1.85;1.60;;;;;;;19.74;37.13;101215.13;5105530;27;20046;-70
2023/04/15 04:17:55;;;;;;;2.15;1.60;;;;;;;19.58;37.20;101200.16;5102380;28;20046;-69
2023/04/15 04:20:21;;;;;;;1.73;1.60;;;;;;;19.64;37.41;101223.25;5105369;28;20092;-69
2023/04/15 04:22:47;;;;;;;1.45;1.35;;;;;;;19.71;37.19;101224.22;5110434;27;20023;-69
2023/04/15 04:25:12;;;;;;;1.52;1.40;;;;;;;19.67;37.31;101222.09;5104938;27;20048;-70
2023/04/15 04:27:38;;;;;;;2.45;2.00;;;;;;;19.53;37.08;101203.25;5105805;28;20043;-69
2023/04/15 04:30:05;;;;;;;1.67;1.58;;;;;;;19.61;37.13;101221.78;5108125;27;20035;-70
2023/04/15 04:32:31;;;;;;;1.70;1.60;;;;;;;19.64;37.26;101233.84;5102403;27;20123;-69
2023/04/15 04:34:56;;;;;;;2.22;1.48;;;;;;;19.61;37.41;101229.72;5090161;28;20457;-69
2023/04/15 04:37:22;;;;;;;1.40;1.30;;;;;;;19.67;37.16;101237.94;5105303;28;20048;-69
2023/04/15 04:39:47;;;;;;;1.48;1.38;;;;;;;19.71;37.09;101234.78;5105239;28;20160;-69
2023/04/15 04:42:13;;;;;;;1.65;1.50;;;;;;;19.71;36.86;101239.25;5105672;28;20053;-67
2023/04/15 04:44:38;;;;;;;2.33;1.55;;;;;;;19.70;37.09;101238.44;5103019;27;20039;-69
2023/04/15 04:47:05;;;;;;;2.13;1.70;;;;;;;19.66;37.34;101239.78;5102213;28;20046;-70
2023/04/15 04:49:30;;;;;;;1.45;1.35;;;;;;;19.66;37.21;101239.78;5107328;27;20445;-69
2023/04/15 04:51:56;;;;;;;1.50;1.40;;;;;;;19.55;37.40;101235.66;5107214;28;20062;-70
2023/04/15 04:54:22;;;;;;;1.48;1.38;;;;;;;19.59;37.28;101236.16;5106979;28;20062;-69
2023/04/15 04:56:48;;;;;;;1.83;1.50;;;;;;;19.62;37.16;101235.81;5107435;28;20046;-70
2023/04/15 04:59:13;;;;;;;1.92;1.40;;;;;;;19.61;37.21;101242.09;5114260;28;20463;-70
2023/04/15 05:01:39;;;;;;;2.30;1.55;;;;;;;19.61;37.21;101239.47;5105174;28;20044;-70
2023/04/15 05:04:06;;;;;;;2.03;1.65;;;;;;;19.61;37.20;101235.00;5108122;28;20874;-69
2023/04/15 05:06:32;;;;;;;2.08;1.50;;;;;;;19.60;37.25;101243.09;5107886;28;20031;-70
2023/04/15 05:08:57;;;;;;;1.52;1.23;;;;;;;19.64;37.19;101249.69;5110152;28;20050;-69
2023/04/15 05:11:23;;;;;;;1.60;1.50;;;;;;;19.56;37.35;101245.22;5103597;28;20043;-70
2023/04/15 05:13:48;;;;;;;1.52;1.42;;;;;;;19.56;37.32;101252.31;5106082;28;20043;-70
2023/04/15 05:16:14;;;;;;;1.90;1.70;;;;;;;19.61;37.23;101261.41;5105880;28;20075;-70
2023/04/15 05:18:40;;;;;;;2.75;1.80;;;;;;;19.62;37.15;101246.38;5108541;28;20024;-69
2023/04/15 05:21:05;;;;;;;1.65;1.35;;;;;;;19.59;37.20;101244.91;5108732;28;20686;-70
2023/04/15 05:23:31;;;;;;;1.35;1.25;;;;;;;19.60;37.13;101246.56;5107014;28;20370;-70
2023/04/15 05:25:57;;;;;;;2.45;1.88;;;;;;;19.50;37.24;101253.78;5100194;28;20034;-70
2023/04/15 05:28:22;;;;;;;1.58;1.48;;;;;;;19.55;37.28;101258.59;5104429;28;20453;-70
2023/04/15 05:30:48;;;;;;;2.08;1.50;;;;;;;19.54;37.36;101267.50;5111875;28;20051;-70
2023/04/15 05:33:13;;;;;;;1.63;1.52;;;;;;;19.49;37.35;101270.63;5108052;28;20088;-70
2023/04/15 05:35:39;;;;;;;1.60;1.35;;;;;;;19.43;37.41;101268.66;5104539;28;20036;-70
2023/04/15 05:38:05;;;;;;;1.50;1.40;;;;;;;19.53;37.32;101271.13;5093525;28;20044;-69
2023/04/15 05:40:30;;;;;;;1.60;1.50;;;;;;;19.53;37.22;101271.94;5102668;27;20485;-69
2023/04/15 05:42:56;;;;;;;1.63;1.30;;;;;;;19.57;37.21;101273.31;5114801;27;20035;-71
2023/04/15 05:45:21;;;;;;;1.25;1.20;;;;;;;19.50;37.41;101277.56;5108788;28;20061;-69
2023/04/15 05:47:49;;;;;;;3.38;1.75;;;;;;;19.53;37.44;101284.31;5110301;28;20027;-70
2023/04/15 05:50:15;;;;;;;1.40;1.30;;;;;;;19.57;37.13;101286.53;5105079;27;20039;-70
2023/04/15 05:52:41;;;;;;;1.40;1.30;;;;;;;19.56;37.14;101286.66;5112691;28;20031;-70
2023/04/15 05:55:07;;;;;;;1.70;1.50;;;;;;;19.54;37.23;101305.31;5109696;28;20040;-69
2023/04/15 05:57:32;;;;;;;1.67;1.58;;;;;;;19.48;37.39;101299.84;5108437;27;20040;-70
2023/04/15 05:59:58;;;;;;;2.33;1.85;;;;;;;19.53;37.28;101310.75;5108973;27;20048;-69
2023/04/15 06:02:23;;;;;;;1.42;1.33;;;;;;;19.53;37.24;101311.56;5111595;28;20039;-70
2023/04/15 06:04:49;;;;;;;1.50;1.40;;;;;;;19.50;37.29;101314.53;5106984;27;20075;-69
2023/04/15 06:07:14;;;;;;;1.83;1.73;;;;;;;19.48;37.32;101305.97;5105328;28;20044;-70
2023/04/15 06:09:40;;;;;;;1.80;1.38;;;;;;;19.43;37.37;101315.38;5109768;27;20821;-70
2023/04/15 06:12:10;;;;;;;1.88;1.63;;;;;;;19.50;37.35;101321.66;5109156;27;20527;-69
2023/04/15 06:14:39;;;;;;;1.23;1.13;;;;;;;19.51;37.32;101312.72;5107439;27;20036;-70
2023/04/15 06:17:05;;;;;;;1.40;1.30;;;;;;;19.49;37.28;101320.81;5109616;27;20529;-70
2023/04/15 06:19:31;;;;;;;1.50;1.35;;;;;;;19.51;37.31;101331.22;5115369;27;20404;-70
2023/04/15 06:21:57;;;;;;;1.60;1.50;;;;;;;19.50;37.32;101335.69;5119434;27;20098;-71
2023/04/15 06:24:23;;;;;;;1.25;1.10;;;;;;;19.52;37.22;101340.78;5102881;27;20035;-70
2023/04/15 06:26:49;;;;;;;1.88;1.50;;;;;;;19.59;37.07;101340.00;5107422;28;20089;-70
2023/04/15 06:29:15;;;;;;;1.30;1.20;;;;;;;19.58;37.10;101338.38;5106938;27;20063;-70
2023/04/15 06:31:40;;;;;;;1.30;1.20;;;;;;;19.67;37.07;101343.63;5106629;27;20050;-70
2023/04/15 06:34:06;;;;;;;1.98;1.30;;;;;;;19.87;36.63;101344.94;5109483;27;20040;-70
2023/04/15 06:36:32;;;;;;;1.38;1.27;;;;;;;20.78;35.10;101342.69;5113355;28;20464;-69
2023/04/15 06:38:57;;;;;;;1.52;1.15;;;;;;;21.17;34.19;101347.06;5108039;27;20424;-70
2023/04/15 06:41:23;;;;;;;1.33;1.23;;;;;;;21.29;34.04;101351.00;5110297;27;20058;-70
2023/04/15 06:43:48;;;;;;;1.20;0.98;;;;;;;21.32;33.93;101345.34;5112757;27;20047;-70
2023/04/15 06:46:14;;;;;;;0.90;0.90;;;;;;;21.39;34.22;101362.22;5113455;27;20047;-69
2023/04/15 06:48:40;;;;;;;1.10;1.08;;;;;;;21.40;33.91;101357.72;5097671;28;20100;-70
2023/04/15 06:51:05;;;;;;;1.42;1.20;;;;;;;21.41;34.30;101365.50;5110696;28;20046;-69
2023/04/15 06:53:31;;;;;;;1.30;1.20;;;;;;;21.34;34.02;101359.25;5092143;28;20048;-69
2023/04/15 06:55:57;;;;;;;1.00;0.93;;;;;;;21.36;34.33;101364.34;5108695;28;20042;-70
2023/04/15 06:58:22;;;;;;;1.13;0.93;;;;;;;21.36;34.19;101367.88;5107078;28;20078;-70
2023/04/15 07:00:48;;;;;;;1.27;1.17;;;;;;;21.21;34.28;101361.63;5101082;27;20039;-70
2023/04/15 07:03:13;;;;;;;1.27;0.98;;;;;;;21.27;34.58;101363.59;5104752;27;20057;-71
2023/04/15 07:05:40;;;;;;;1.30;1.20;;;;;;;21.16;34.78;101355.19;5109053;27;20037;-71
2023/04/15 07:08:06;;;;;;;1.15;1.08;;;;;;;20.99;34.89;101363.25;5110033;27;20049;-71
2023/04/15 07:10:33;;;;;;;0.98;0.98;;;;;;;20.90;35.01;101368.78;5110308;27;20031;-75
2023/04/15 07:12:58;;;;;;;2.05;1.13;;;;;;;20.77;35.46;101371.97;5104112;27;20440;-71
2023/04/15 07:15:24;;;;;;;2.95;1.35;;;;;;;20.60;35.64;101367.75;5104862;28;20067;-73
2023/04/15 07:17:50;;;;;;;1.17;1.05;;;;;;;20.59;35.98;101374.03;5105444;27;20506;-72
2023/04/15 07:20:15;;;;;;;1.40;1.30;;;;;;;20.51;36.09;101377.53;5109363;27;20102;-72
2023/04/15 07:22:41;;;;;;;1.38;1.23;;;;;;;20.42;36.39;101373.25;5109750;27;20106;-72
2023/04/15 07:25:07;;;;;;;2.28;1.33;;;;;;;20.33;36.28;101382.19;5108985;27;20055;-72
2023/04/15 07:27:33;;;;;;;1.50;1.00;;;;;;;20.25;36.56;101383.03;5105137;27;20130;-72
2023/04/15 07:29:59;;;;;;;1.35;1.25;;;;;;;20.23;36.50;101390.31;5101527;28;20180;-73
2023/04/15 07:32:24;;;;;;;1.65;1.40;;;;;;;20.16;36.61;101398.09;5103339;27;20044;-72
2023/04/15 07:34:50;;;;;;;1.92;1.33;;;;;;;20.06;36.80;101393.97;5106522;28;20032;-74
2023/04/15 07:37:16;;;;;;;1.30;1.20;;;;;;;20.10;36.77;101395.28;5112680;27;20074;-72
2023/04/15 07:39:42;;;;;;;3.22;1.10;;;;;;;20.14;36.75;101405.38;5102741;28;20673;-72
2023/04/15 07:42:08;;;;;;;1.60;1.50;;;;;;;20.11;36.79;101400.44;5107546;27;20035;-72
2023/04/15 07:44:33;;;;;;;1.08;1.02;;;;;;;20.12;36.78;101409.19;5113506;27;20042;-72
2023/04/15 07:47:01;;;;;;;1.88;1.25;;;;;;;20.13;36.67;101398.44;5108440;28;20039;-73
2023/04/15 07:49:27;;;;;;;2.22;1.20;;;;;;;20.29;36.30;101396.72;5103143;28;20664;-73
2023/04/15 07:51:52;;;;;;;1.40;1.30;;;;;;;20.32;36.36;101397.25;5105505;28;20039;-73
2023/04/15 07:54:18;;;;;;;1.15;1.05;;;;;;;20.35;36.33;101399.56;5107762;27;20055;-72
2023/04/15 07:56:44;;;;;;;3.33;1.30;;;;;;;20.36;36.32;101406.50;5103703;27;20032;-73
2023/04/15 07:59:10;;;;;;;1.25;1.15;;;;;;;20.23;36.54;101407.00;5110535;27;20043;-74
2023/04/15 08:01:36;;;;;;;3.38;1.33;;;;;;;20.23;36.44;101400.88;5112464;27;20043;-72
2023/04/15 08:04:02;;;;;;;1.20;1.10;;;;;;;20.16;36.78;101405.22;5107230;27;20092;-71
2023/04/15 08:06:27;;;;;;;2.78;1.45;;;;;;;20.17;36.79;101409.50;5105289;27;20036;-71
2023/04/15 08:08:53;;;;;;;1.33;1.00;;;;;;;20.13;36.75;101406.38;5110861;27;21141;-73
2023/04/15 08:11:20;;;;;;;1.85;1.30;;;;;;;20.13;36.79;101416.94;5109915;27;20046;-73
2023/04/15 08:13:46;;;;;;;2.75;1.55;;;;;;;20.14;36.74;101415.13;5100436;28;20027;-71
2023/04/15 08:16:15;;;;;;;1.15;1.05;;;;;;;20.20;36.57;101417.91;5101696;27;20043;-71
2023/04/15 08:18:41;;;;;;;1.03;1.03;;;;;;;20.16;36.79;101418.44;5101077;27;20047;-71
2023/04/15 08:21:07;;;;;;;1.45;1.35;;;;;;;20.13;36.82;101418.78;5099057;27;20055;-73
2023/04/15 08:23:33;;;;;;;1.52;1.17;;;;;;;20.31;36.56;101421.22;5101823;27;20819;-72
2023/04/15 08:25:59;;;;;;;1.80;1.30;;;;;;;20.48;36.20;101413.13;5105828;28;20024;-71
2023/04/15 08:28:24;;;;;;;1.67;1.30;;;;;;;20.70;35.89;101423.94;5103898;28;20771;-71
2023/04/15 08:30:51;;;;;;;3.90;1.48;;;;;;;20.66;35.78;101423.47;5109416;27;20246;-73
2023/04/15 08:33:17;;;;;;;1.40;1.20;;;;;;;20.62;35.94;101422.13;5106350;27;20078;-72
2023/04/15 08:35:42;;;;;;;1.55;1.40;;;;;;;20.48;36.17;101422.88;5105354;27;20043;-72
2023/04/15 08:38:08;;;;;;;1.70;1.42;;;;;;;20.39;36.29;101423.84;5107931;27;20062;-71
2023/04/15 08:40:42;;;;;;;1.77;1.48;;;;;;;20.93;35.40;101416.06;5062571;27;20036;-73
2023/04/15 08:43:12;;;;;;;1.65;1.42;;;;;;;21.09;35.18;101427.41;5109763;27;20040;-72
2023/04/15 08:45:38;;;;;;;4.10;1.88;;;;;;;21.17;35.06;101425.72;5067405;27;20126;-69
2023/04/15 08:48:05;;;;;;;1.75;1.42;;;;;;;21.21;34.87;101422.56;5105417;28;20055;-70
2023/04/15 08:50:31;;;;;;;3.22;1.73;;;;;;;21.27;34.63;101432.47;5060295;27;20527;-71
2023/04/15 08:53:00;;;;;;;2.67;1.63;;;;;;;21.26;34.88;101428.19;5104390;27;20035;-71
2023/04/15 08:55:35;;;;;;;2.20;1.30;;;;;;;21.28;34.59;101428.84;5062784;28;20101;-68
2023/04/15 08:58:01;;;;;;;3.38;1.83;;;;;;;21.24;34.65;101434.63;5105242;28;20043;-70
2023/04/15 09:00:31;;;;;;;2.78;1.58;;;;;;;21.31;34.63;101430.28;5057940;28;20135;-70
2023/04/15 09:02:58;;;;;;;1.58;1.45;;;;;;;21.28;34.82;101423.53;5104119;28;20039;-69
2023/04/15 09:05:23;;;;;;;1.38;1.27;;;;;;;21.38;34.60;101428.63;5085254;28;20162;-70
2023/04/15 09:07:52;;;;;;;3.20;1.73;;;;;;;21.34;34.44;101425.47;5104443;28;20040;-71
2023/04/15 09:10:17;;;;;;;2.30;1.45;;;;;;;21.42;34.33;101429.91;5062117;28;20113;-70
2023/04/15 09:12:43;;;;;;;2.25;1.40;;;;;;;21.38;34.29;101432.09;5094124;28;20833;-70
2023/04/15 09:15:11;;;;;;;1.42;1.33;;;;;;;21.42;34.31;101438.69;5063739;27;20046;-69
2023/04/15 09:17:45;;;;;;;1.50;1.40;;;;;;;21.37;34.17;101438.41;5104582;27;20150;-70
2023/04/15 09:20:17;;;;;;;1.30;1.20;;;;;;;21.42;34.40;101437.84;5070837;27;20077;-70
2023/04/15 09:22:45;;;;;;;1.38;1.20;;;;;;;21.42;34.25;101441.34;5098525;27;20035;-70
2023/04/15 09:25:31;;;;;;;1.88;1.45;;;;;;;21.45;34.34;101450.75;5108003;27;20091;-70
2023/04/15 09:27:59;;;;;;;1.90;1.55;;;;;;;21.46;34.42;101456.88;5063755;27;21585;-70
2023/04/15 09:30:27;;;;;;;1.60;1.38;;;;;;;21.45;34.12;101456.06;5106620;28;20039;-71
2023/04/15 09:32:55;;;;;;;1.52;1.42;;;;;;;21.44;34.34;101456.22;5066211;27;20123;-70
2023/04/15 09:35:22;;;;;;;1.92;1.40;;;;;;;21.47;34.34;101453.22;5106099;27;20035;-71
2023/04/15 09:37:49;;;;;;;2.25;1.42;;;;;;;21.48;34.44;101466.28;5066729;27;20478;-71
2023/04/15 09:40:30;;;;;;;1.23;1.13;;;;;;;21.47;34.05;101466.47;5109919;28;20047;-72
2023/04/15 09:42:56;;;;;;;2.00;1.40;;;;;;;21.43;34.44;101468.66;5072404;27;20080;-71
2023/04/15 09:45:22;;;;;;;1.50;1.40;;;;;;;21.44;34.39;101458.88;5098301;27;20052;-70
2023/04/15 09:47:50;;;;;;;1.30;1.17;;;;;;;21.46;34.23;101463.00;5098682;27;20043;-70
2023/04/15 09:50:16;;;;;;;2.22;1.40;;;;;;;21.44;34.05;101467.66;5110334;27;20063;-71
2023/04/15 09:52:43;;;;;;;1.67;1.20;;;;;;;21.44;33.98;101470.31;5062257;27;20568;-71
2023/04/15 09:55:10;;;;;;;1.17;1.10;;;;;;;21.45;34.29;101469.28;5109114;27;20157;-70
2023/04/15 09:57:36;;;;;;;1.70;1.35;;;;;;;21.38;33.98;101466.53;5064825;27;20050;-70
2023/04/15 10:00:04;;;;;;;2.22;1.50;;;;;;;21.42;34.15;101475.78;5108322;27;20043;-70
2023/04/15 10:02:32;;;;;;;2.03;1.50;;;;;;;21.48;34.31;101476.06;5068158;27;21391;-70
2023/04/15 10:04:59;;;;;;;1.85;1.40;;;;;;;21.46;34.28;101484.19;5107521;28;20420;-71
2023/04/15 10:07:24;;;;;;;2.47;1.30;;;;;;;21.43;34.23;101492.50;5067278;27;20043;-70
2023/04/15 10:09:51;;;;;;;1.75;1.48;;;;;;;21.43;34.10;101489.84;5102855;27;20039;-70
2023/04/15 10:12:18;;;;;;;1.65;1.30;;;;;;;21.44;34.06;101493.31;5070307;27;20465;-71
2023/04/15 10:14:51;;;;;;;1.60;1.40;;;;;;;21.46;33.96;101491.31;5109203;27;20042;-71
2023/04/15 10:17:21;;;;;;;1.60;1.30;;;;;;;21.42;34.10;101494.31;5072598;27;20066;-71
2023/04/15 10:19:48;;;;;;;2.33;1.30;;;;;;;21.45;34.41;101500.28;5104368;27;20075;-70
2023/04/15 10:22:14;;;;;;;1.30;1.23;;;;;;;21.44;34.05;101491.50;5067105;27;20464;-69
2023/04/15 10:24:40;;;;;;;1.45;1.35;;;;;;;21.44;34.32;101495.97;5102635;28;20493;-69
2023/04/15 10:27:06;;;;;;;1.38;1.10;;;;;;;21.42;34.01;101496.16;5067513;27;20143;-70
2023/04/15 10:29:33;;;;;;;1.42;1.33;;;;;;;21.45;34.39;101494.97;5095732;27;20035;-70
2023/04/15 10:32:00;;;;;;;1.30;1.20;;;;;;;21.48;33.94;101494.63;5108221;27;20071;-71
2023/04/15 10:34:26;;;;;;;1.75;1.40;;;;;;;21.43;34.04;101497.78;5066484;27;20112;-70
2023/04/15 10:36:56;;;;;;;2.45;1.30;;;;;;;21.44;34.36;101502.09;5111786;27;20043;-70
2023/04/15 10:39:33;;;;;;;1.80;1.15;;;;;;;21.47;34.12;101511.50;5064976;27;20160;-69
2023/04/15 10:42:32;;;;;;;1.42;0.95;;;;;;;21.42;34.10;101499.63;5105505;28;20039;-69
2023/04/15 10:44:59;;;;;;;3.20;1.42;;;;;;;21.41;34.33;101497.97;5072638;27;20046;-70
2023/04/15 10:47:24;;;;;;;1.75;1.10;;;;;;;21.44;34.15;101504.75;5102545;27;20046;-70
2023/04/15 10:49:55;;;;;;;1.63;1.38;;;;;;;21.40;34.09;101501.63;5072751;27;20035;-70
2023/04/15 10:52:26;;;;;;;1.63;1.20;;;;;;;21.42;34.34;101507.56;5105394;27;20032;-70
2023/04/15 10:55:10;;;;;;;1.90;1.10;;;;;;;21.31;34.39;101515.91;5088815;27;20044;-70
2023/04/15 10:57:40;;;;;;;3.13;1.42;;;;;;;21.13;34.51;101518.75;5103689;27;20564;-71
2023/04/15 11:00:11;;;;;;;2.80;1.52;;;;;;;21.05;34.59;101510.03;5071525;27;20027;-70
2023/04/15 11:02:39;;;;;;;3.28;1.60;;;;;;;20.98;35.01;101528.41;5093839;27;20953;-70
2023/04/15 11:05:06;;;;;;;2.38;1.60;;;;;;;20.97;34.72;101528.56;5068225;27;20032;-70
2023/04/15 11:07:45;;;;;;;4.50;1.90;;;;;;;20.92;34.65;101534.38;5104292;27;20046;-70
2023/04/15 11:10:16;;;;;;;1.80;1.52;;;;;;;20.88;34.84;101535.72;5073416;27;20524;-69
2023/04/15 11:13:01;;;;;;;2.33;1.73;;;;;;;20.84;34.87;101536.25;5102995;27;20319;-70
2023/04/15 11:15:40;;;;;;;3.22;2.00;;;;;;;20.78;34.89;101543.84;5065783;27;20061;-70
2023/04/15 11:18:13;;;;;;;2.83;1.48;;;;;;;20.80;34.87;101539.19;5107975;27;20443;-71
2023/04/15 11:20:40;;;;;;;1.92;1.20;;;;;;;20.80;34.77;101538.38;5093788;27;20045;-70
2023/04/15 11:23:08;;;;;;;4.03;2.00;;;;;;;20.77;34.69;101546.66;5111225;27;20103;-70